Argo — SMOH — position and weather

sailwx.info

Track history (hours):
 
Tides and Currents Weather Stations Pressure Air Temp Water Temp Dewpoint Dewpoint Depression Visibility Wind Speed Wind Dir Waves Ship Positions

Argo

Last reported at 2015-May-06 20:18 UTC. Time now 2015-May-07 05:37 UTC.
Position N 59°04' E 018°09'.

Length 26 m; draft 2 m.

Type: Military. MMSI: 265591600.

Date/timePositionNaut miles runAvg speedWind from/ knotsBaromVisibWave heightAir tempDewpointWater temp
2015-May-06 20:18N 59°04' E 018°09'47 5.4
2015-May-06 11:32N 58°36' E 016°56'65 3.1
2015-May-05 14:33N 57°31' E 016°52'1818.0
2015-May-05 13:34N 57°16' E 016°32'2 1.8
2015-May-05 12:32N 57°16' E 016°29'0 0.0
2015-May-05 11:32N 57°16' E 016°29'0 0.0
2015-May-05 10:32N 57°16' E 016°29'0 0.0
2015-May-05 09:32N 57°16' E 016°29'5 5.3
2015-May-05 08:31N 57°12' E 016°36'7 7.0
2015-May-05 07:33N 57°06' E 016°43'67 3.5
2015-May-04 12:10N 56°09' E 015°39'2 2.8
2015-May-04 11:27N 56°09' E 015°35'0 0.0
2015-May-04 10:24N 56°09' E 015°35'0 0.0
2015-May-04 09:18N 56°09' E 015°35'0 0.0
2015-May-04 08:27N 56°09' E 015°35'0 0.0
2015-May-04 07:18N 56°09' E 015°35'0 0.0
2015-May-04 02:33N 56°09' E 015°35'0 0.0
2015-May-03 11:24N 56°09' E 015°35'0 0.0
2015-May-03 10:33N 56°09' E 015°35'0 0.0
2015-May-03 09:33N 56°09' E 015°35'0 0.0
2015-May-03 08:26N 56°09' E 015°35'0 0.0
2015-May-03 07:32N 56°09' E 015°35'0 0.0
2015-May-03 06:32N 56°09' E 015°35'0 0.0
2015-May-03 05:20N 56°09' E 015°35'0 0.0
2015-May-03 03:11N 56°09' E 015°35'0 0.0
2015-May-03 02:26N 56°09' E 015°35'0 0.0
2015-May-03 01:26N 56°09' E 015°35'0 0.0
2015-May-03 00:33N 56°09' E 015°35'0 0.0
2015-May-02 23:17N 56°09' E 015°35'0 0.0
2015-May-02 22:32N 56°09' E 015°35'0 0.0
2015-May-02 21:11N 56°09' E 015°35'0 0.0
2015-May-02 20:26N 56°09' E 015°35'0 0.0
2015-May-02 19:20N 56°09' E 015°35'0 0.0
2015-May-02 16:32N 56°09' E 015°35'0 0.0
2015-May-02 15:14N 56°09' E 015°35'0 0.0
2015-May-02 14:23N 56°09' E 015°35'0 0.0
2015-May-02 11:32N 56°09' E 015°35'0 0.0
2015-May-02 10:08N 56°09' E 015°35'0 0.0
2015-May-02 09:32N 56°09' E 015°35'0 0.0
2015-May-02 07:11N 56°09' E 015°35'0 0.0
2015-May-02 06:23N 56°09' E 015°35'0 0.0
2015-May-02 05:26N 56°09' E 015°35'0 0.0
2015-May-02 03:32N 56°09' E 015°35'0 0.0
2015-May-02 00:26N 56°09' E 015°35'0 0.0
2015-May-01 23:29N 56°09' E 015°35'0 0.0
2015-May-01 22:14N 56°09' E 015°35'0 0.0
2015-May-01 21:32N 56°09' E 015°35'0 0.0
2015-May-01 20:32N 56°09' E 015°35'0 0.0
2015-May-01 19:29N 56°09' E 015°35'0 0.0
2015-May-01 18:11N 56°09' E 015°35'0 0.0
2015-May-01 17:26N 56°09' E 015°35'0 0.0
2015-May-01 16:05N 56°09' E 015°35'0 0.0
2015-May-01 15:17N 56°09' E 015°35'0 0.0
2015-May-01 14:26N 56°09' E 015°35'0 0.0
2015-May-01 13:29N 56°09' E 015°35'0 0.0
2015-May-01 12:17N 56°09' E 015°35'0 0.0
2015-May-01 09:26N 56°09' E 015°35'0 0.0
2015-May-01 08:08N 56°09' E 015°35'0 0.0
2015-May-01 07:29N 56°09' E 015°35'0 0.0
2015-May-01 06:32N 56°09' E 015°35'0 0.0
2015-May-01 02:29N 56°09' E 015°35'0 0.0
2015-May-01 01:05N 56°09' E 015°35'0 0.0
2015-May-01 00:26N 56°09' E 015°35'0 0.0
2015-Apr-30 23:29N 56°09' E 015°35'0 0.0
2015-Apr-30 21:32N 56°09' E 015°35'0 0.0
2015-Apr-30 20:29N 56°09' E 015°35'0 0.0
2015-Apr-30 18:23N 56°09' E 015°35'0 0.0
2015-Apr-30 17:14N 56°09' E 015°35'0 0.0
2015-Apr-30 16:14N 56°09' E 015°35'0 0.0
2015-Apr-30 15:29N 56°09' E 015°35'0 0.0
2015-Apr-30 14:14N 56°09' E 015°35'0 0.0
2015-Apr-30 13:29N 56°09' E 015°35'0 0.0
2015-Apr-30 10:08N 56°09' E 015°35'0 0.0
2015-Apr-30 09:05N 56°09' E 015°35'0 0.0
2015-Apr-30 08:08N 56°09' E 015°35'0 0.0
2015-Apr-30 07:32N 56°09' E 015°35'0 0.0
2015-Apr-30 06:32N 56°09' E 015°35'0 0.0
2015-Apr-30 05:32N 56°09' E 015°35'0 0.0
2015-Apr-30 04:14N 56°09' E 015°35'0 0.0
2015-Apr-30 01:26N 56°09' E 015°35'0 0.0
2015-Apr-30 00:26N 56°09' E 015°35'0 0.0
2015-Apr-29 20:32N 56°09' E 015°35'0 0.0
2015-Apr-29 19:32N 56°09' E 015°35'0 0.0
2015-Apr-29 18:32N 56°09' E 015°35'0 0.0
2015-Apr-29 10:26N 56°09' E 015°35'0 0.0
2015-Apr-29 09:26N 56°09' E 015°35'0 0.0
2015-Apr-29 08:14N 56°09' E 015°35'0 0.0
2015-Apr-29 07:08N 56°09' E 015°35'0 0.0
2015-Apr-29 06:29N 56°09' E 015°35'0 0.0
2015-Apr-29 03:33N 56°09' E 015°35'0 0.0
2015-Apr-29 00:17N 56°09' E 015°35'0 0.0
2015-Apr-28 22:26N 56°09' E 015°35'  
Track history (hours):
 
Tides and Currents Weather Stations Pressure Air Temp Water Temp Dewpoint Dewpoint Depression Visibility Wind Speed Wind Dir Waves Ship Positions

Argo

Last reported at 2015-May-06 20:18 UTC. Time now 2015-May-07 05:37 UTC.
Position N 59°04' E 018°09'.

Length 26 m; draft 2 m.

Type: Military. MMSI: 265591600.

Date/timePositionNaut miles runAvg speedWind from/ knotsBaromVisibWave heightAir tempDewpointWater temp
2015-May-06 20:18N 59°04' E 018°09'47 5.4
2015-May-06 11:32N 58°36' E 016°56'65 3.1
2015-May-05 14:33N 57°31' E 016°52'1818.0
2015-May-05 13:34N 57°16' E 016°32'2 1.8
2015-May-05 12:32N 57°16' E 016°29'0 0.0
2015-May-05 11:32N 57°16' E 016°29'0 0.0
2015-May-05 10:32N 57°16' E 016°29'0 0.0
2015-May-05 09:32N 57°16' E 016°29'5 5.3
2015-May-05 08:31N 57°12' E 016°36'7 7.0
2015-May-05 07:33N 57°06' E 016°43'67 3.5
2015-May-04 12:10N 56°09' E 015°39'2 2.8
2015-May-04 11:27N 56°09' E 015°35'0 0.0
2015-May-04 10:24N 56°09' E 015°35'0 0.0
2015-May-04 09:18N 56°09' E 015°35'0 0.0
2015-May-04 08:27N 56°09' E 015°35'0 0.0
2015-May-04 07:18N 56°09' E 015°35'0 0.0
2015-May-04 02:33N 56°09' E 015°35'0 0.0
2015-May-03 11:24N 56°09' E 015°35'0 0.0
2015-May-03 10:33N 56°09' E 015°35'0 0.0
2015-May-03 09:33N 56°09' E 015°35'0 0.0
2015-May-03 08:26N 56°09' E 015°35'0 0.0
2015-May-03 07:32N 56°09' E 015°35'0 0.0
2015-May-03 06:32N 56°09' E 015°35'0 0.0
2015-May-03 05:20N 56°09' E 015°35'0 0.0
2015-May-03 03:11N 56°09' E 015°35'0 0.0
2015-May-03 02:26N 56°09' E 015°35'0 0.0
2015-May-03 01:26N 56°09' E 015°35'0 0.0
2015-May-03 00:33N 56°09' E 015°35'0 0.0
2015-May-02 23:17N 56°09' E 015°35'0 0.0
2015-May-02 22:32N 56°09' E 015°35'0 0.0
2015-May-02 21:11N 56°09' E 015°35'0 0.0
2015-May-02 20:26N 56°09' E 015°35'0 0.0
2015-May-02 19:20N 56°09' E 015°35'0 0.0
2015-May-02 16:32N 56°09' E 015°35'0 0.0
2015-May-02 15:14N 56°09' E 015°35'0 0.0
2015-May-02 14:23N 56°09' E 015°35'0 0.0
2015-May-02 11:32N 56°09' E 015°35'0 0.0
2015-May-02 10:08N 56°09' E 015°35'0 0.0
2015-May-02 09:32N 56°09' E 015°35'0 0.0
2015-May-02 07:11N 56°09' E 015°35'0 0.0
2015-May-02 06:23N 56°09' E 015°35'0 0.0
2015-May-02 05:26N 56°09' E 015°35'0 0.0
2015-May-02 03:32N 56°09' E 015°35'0 0.0
2015-May-02 00:26N 56°09' E 015°35'0 0.0
2015-May-01 23:29N 56°09' E 015°35'0 0.0
2015-May-01 22:14N 56°09' E 015°35'0 0.0
2015-May-01 21:32N 56°09' E 015°35'0 0.0
2015-May-01 20:32N 56°09' E 015°35'0 0.0
2015-May-01 19:29N 56°09' E 015°35'0 0.0
2015-May-01 18:11N 56°09' E 015°35'0 0.0
2015-May-01 17:26N 56°09' E 015°35'0 0.0
2015-May-01 16:05N 56°09' E 015°35'0 0.0
2015-May-01 15:17N 56°09' E 015°35'0 0.0
2015-May-01 14:26N 56°09' E 015°35'0 0.0
2015-May-01 13:29N 56°09' E 015°35'0 0.0
2015-May-01 12:17N 56°09' E 015°35'0 0.0
2015-May-01 09:26N 56°09' E 015°35'0 0.0
2015-May-01 08:08N 56°09' E 015°35'0 0.0
2015-May-01 07:29N 56°09' E 015°35'0 0.0
2015-May-01 06:32N 56°09' E 015°35'0 0.0
2015-May-01 02:29N 56°09' E 015°35'0 0.0
2015-May-01 01:05N 56°09' E 015°35'0 0.0
2015-May-01 00:26N 56°09' E 015°35'0 0.0
2015-Apr-30 23:29N 56°09' E 015°35'0 0.0
2015-Apr-30 21:32N 56°09' E 015°35'0 0.0
2015-Apr-30 20:29N 56°09' E 015°35'0 0.0
2015-Apr-30 18:23N 56°09' E 015°35'0 0.0
2015-Apr-30 17:14N 56°09' E 015°35'0 0.0
2015-Apr-30 16:14N 56°09' E 015°35'0 0.0
2015-Apr-30 15:29N 56°09' E 015°35'0 0.0
2015-Apr-30 14:14N 56°09' E 015°35'0 0.0
2015-Apr-30 13:29N 56°09' E 015°35'0 0.0
2015-Apr-30 10:08N 56°09' E 015°35'0 0.0
2015-Apr-30 09:05N 56°09' E 015°35'0 0.0
2015-Apr-30 08:08N 56°09' E 015°35'0 0.0
2015-Apr-30 07:32N 56°09' E 015°35'0 0.0
2015-Apr-30 06:32N 56°09' E 015°35'0 0.0
2015-Apr-30 05:32N 56°09' E 015°35'0 0.0
2015-Apr-30 04:14N 56°09' E 015°35'0 0.0
2015-Apr-30 01:26N 56°09' E 015°35'0 0.0
2015-Apr-30 00:26N 56°09' E 015°35'0 0.0
2015-Apr-29 20:32N 56°09' E 015°35'0 0.0
2015-Apr-29 19:32N 56°09' E 015°35'0 0.0
2015-Apr-29 18:32N 56°09' E 015°35'0 0.0
2015-Apr-29 10:26N 56°09' E 015°35'0 0.0
2015-Apr-29 09:26N 56°09' E 015°35'0 0.0
2015-Apr-29 08:14N 56°09' E 015°35'0 0.0
2015-Apr-29 07:08N 56°09' E 015°35'0 0.0
2015-Apr-29 06:29N 56°09' E 015°35'0 0.0
2015-Apr-29 03:33N 56°09' E 015°35'0 0.0
2015-Apr-29 00:17N 56°09' E 015°35'0 0.0
2015-Apr-28 22:26N 56°09' E 015°35'  

Dump ship's entire track history